createdAt,value
2023-04-16T00:00:11.534Z,97025.75
2023-04-16T00:02:38.450Z,97029.69
2023-04-16T00:05:05.505Z,97018.97
2023-04-16T00:07:32.232Z,97027.00
2023-04-16T00:10:00.261Z,97022.47
2023-04-16T00:12:26.883Z,97019.38
2023-04-16T00:14:53.635Z,97021.63
2023-04-16T00:17:20.282Z,97023.28
2023-04-16T00:19:46.909Z,97027.81
2023-04-16T00:22:13.534Z,97031.53
2023-04-16T00:24:40.322Z,97031.09
2023-04-16T00:27:06.967Z,97031.09
2023-04-16T00:29:33.746Z,97029.66
2023-04-16T00:32:00.424Z,97028.22
2023-04-16T00:34:27.125Z,97032.16
2023-04-16T00:36:53.828Z,97028.00
2023-04-16T00:39:20.415Z,97030.09
2023-04-16T00:41:47.140Z,97032.75
2023-04-16T00:44:13.838Z,97028.66
2023-04-16T00:46:40.601Z,97041.03
2023-04-16T00:49:07.414Z,97039.97
2023-04-16T00:51:35.360Z,97039.56
2023-04-16T00:54:02.024Z,97040.19
2023-04-16T00:56:28.718Z,97037.31
2023-04-16T00:58:55.474Z,97037.72
2023-04-16T01:01:22.362Z,97028.22
2023-04-16T01:03:49.297Z,97037.50
2023-04-16T01:06:17.202Z,97036.06
2023-04-16T01:08:44.122Z,97034.81
2023-04-16T01:11:11.039Z,97035.84
2023-04-16T01:13:37.751Z,97034.59
2023-04-16T01:16:04.929Z,97017.50
2023-04-16T01:18:33.276Z,97021.63
2023-04-16T01:20:59.934Z,97025.94
2023-04-16T01:23:26.601Z,97031.69
2023-04-16T01:25:53.476Z,97031.91
2023-04-16T01:28:20.105Z,97035.22
2023-04-16T01:30:46.827Z,97042.63
2023-04-16T01:33:14.045Z,97045.94
2023-04-16T01:35:40.888Z,97045.31
2023-04-16T01:38:08.546Z,97045.53
2023-04-16T01:40:35.745Z,97042.84
2023-04-16T01:43:02.492Z,97046.53
2023-04-16T01:45:29.192Z,97039.75
2023-04-16T01:47:55.927Z,97041.41
2023-04-16T01:50:22.769Z,97042.44
2023-04-16T01:52:49.388Z,97046.78
2023-04-16T01:55:16.052Z,97047.41
2023-04-16T01:57:42.729Z,97040.16
2023-04-16T02:00:09.701Z,97053.78
2023-04-16T02:02:36.591Z,97053.38
2023-04-16T02:05:03.429Z,97052.16
2023-04-16T02:07:30.107Z,97052.16
2023-04-16T02:09:56.801Z,97057.69
2023-04-16T02:12:23.487Z,97051.31
2023-04-16T02:14:50.179Z,97054.38
2023-04-16T02:17:16.933Z,97055.03
2023-04-16T02:19:43.570Z,97048.84
2023-04-16T02:22:10.236Z,97052.13
2023-04-16T02:24:36.913Z,97057.66
2023-04-16T02:27:03.514Z,97055.22
2023-04-16T02:29:30.175Z,97056.44
2023-04-16T02:31:56.905Z,97055.84
2023-04-16T02:34:23.739Z,97062.22
2023-04-16T02:36:50.403Z,97057.06
2023-04-16T02:39:17.046Z,97058.28
2023-04-16T02:41:43.704Z,97053.53
2023-04-16T02:44:10.308Z,97062.63
2023-04-16T02:46:36.961Z,97066.53
2023-04-16T02:49:03.619Z,97061.75
2023-04-16T02:51:30.214Z,97057.25
2023-04-16T02:53:56.914Z,97062.41
2023-04-16T02:56:23.605Z,97054.34
2023-04-16T02:58:50.298Z,97052.09
2023-04-16T03:01:17.034Z,97052.91
2023-04-16T03:03:43.634Z,97050.03
2023-04-16T03:06:10.269Z,97058.28
2023-04-16T03:08:36.886Z,97059.72
2023-04-16T03:11:03.584Z,97058.06
2023-04-16T03:13:30.282Z,97055.59
2023-04-16T03:15:56.951Z,97056.00
2023-04-16T03:18:23.697Z,97054.75
2023-04-16T03:20:53.691Z,97052.03
2023-04-16T03:23:20.342Z,97052.47
2023-04-16T03:25:47.076Z,97053.28
2023-04-16T03:28:13.945Z,97046.28
2023-04-16T03:30:40.564Z,97047.56
2023-04-16T03:33:07.280Z,97050.03
2023-04-16T03:35:33.937Z,97050.84
2023-04-16T03:38:00.688Z,97059.94
2023-04-16T03:40:27.409Z,97049.81
2023-04-16T03:42:54.034Z,97047.56
2023-04-16T03:45:20.687Z,97052.09
2023-04-16T03:47:47.421Z,97050.84
2023-04-16T03:50:14.078Z,97055.38
2023-04-16T03:52:40.793Z,97058.47
2023-04-16T03:55:08.036Z,97061.59
2023-04-16T03:57:34.714Z,97061.19
2023-04-16T04:00:01.440Z,97062.63
2023-04-16T04:02:28.339Z,97058.69
2023-04-16T04:04:55.210Z,97061.16
2023-04-16T04:07:21.937Z,97058.69
2023-04-16T04:09:48.601Z,97057.88
2023-04-16T04:12:15.256Z,97057.03
2023-04-16T04:14:43.081Z,97058.47
2023-04-16T04:17:09.854Z,97056.59
2023-04-16T04:19:37.806Z,97056.59
2023-04-16T04:22:07.116Z,97054.97
2023-04-16T04:24:33.792Z,97058.44
2023-04-16T04:27:00.474Z,97062.97
2023-04-16T04:29:27.138Z,97066.88
2023-04-16T04:31:53.794Z,97065.88
2023-04-16T04:34:20.510Z,97077.63
2023-04-16T04:36:47.313Z,97066.69
2023-04-16T04:39:13.983Z,97071.84
2023-04-16T04:41:40.647Z,97066.28
2023-04-16T04:44:07.262Z,97066.31
2023-04-16T04:46:33.872Z,97068.56
2023-04-16T04:49:00.526Z,97069.81
2023-04-16T04:51:27.468Z,97067.94
2023-04-16T04:53:54.136Z,97070.19
2023-04-16T04:56:20.819Z,97075.56
2023-04-16T04:58:50.135Z,97078.47
2023-04-16T05:01:17.236Z,97077.41
2023-04-16T05:03:44.258Z,97079.91
2023-04-16T05:06:10.975Z,97083.81
2023-04-16T05:08:37.611Z,97084.84
2023-04-16T05:11:04.545Z,97084.63
2023-04-16T05:13:31.227Z,97077.84
2023-04-16T05:15:57.836Z,97085.47
2023-04-16T05:18:24.550Z,97078.03
2023-04-16T05:20:51.159Z,97081.75
2023-04-16T05:23:17.761Z,97076.38
2023-04-16T05:25:44.395Z,97081.94
2023-04-16T05:28:13.361Z,97076.34
2023-04-16T05:30:39.988Z,97088.72
2023-04-16T05:33:06.693Z,97078.81
2023-04-16T05:35:33.303Z,97088.28
2023-04-16T05:37:59.977Z,97081.25
2023-04-16T05:40:26.736Z,97087.09
2023-04-16T05:42:53.336Z,97080.47
2023-04-16T05:45:19.989Z,97080.84
2023-04-16T05:47:46.634Z,97073.00
2023-04-16T05:50:13.338Z,97074.66
2023-04-16T05:52:40.004Z,97075.22
2023-04-16T05:55:06.771Z,97077.69
2023-04-16T05:57:33.454Z,97082.44
2023-04-16T06:00:00.223Z,97081.41
2023-04-16T06:02:27.012Z,97082.03
2023-04-16T06:04:53.816Z,97088.19
2023-04-16T06:07:20.485Z,97089.41
2023-04-16T06:09:47.131Z,97093.16
2023-04-16T06:12:13.819Z,97079.13
2023-04-16T06:14:40.425Z,97087.81
2023-04-16T06:17:07.096Z,97090.69
2023-04-16T06:19:33.814Z,97093.97
2023-04-16T06:22:00.515Z,97091.47
2023-04-16T06:24:27.199Z,97091.84
2023-04-16T06:26:53.927Z,97091.56
2023-04-16T06:29:22.528Z,97090.53
2023-04-16T06:31:52.587Z,97091.97
2023-04-16T06:34:19.369Z,97095.63
2023-04-16T06:36:46.028Z,97083.03
2023-04-16T06:39:12.712Z,97089.00
2023-04-16T06:41:39.344Z,97093.56
2023-04-16T06:44:06.028Z,97090.44
2023-04-16T06:46:32.644Z,97095.41
2023-04-16T06:48:59.313Z,97091.69
2023-04-16T06:51:26.002Z,97085.19
2023-04-16T06:53:52.883Z,97094.25
2023-04-16T06:56:19.623Z,97094.66
2023-04-16T06:58:46.286Z,97098.78
2023-04-16T07:01:13.106Z,97095.44
2023-04-16T07:03:40.165Z,97093.53
2023-04-16T07:06:06.946Z,97090.59
2023-04-16T07:08:33.700Z,97093.63
2023-04-16T07:11:00.511Z,97095.00
2023-04-16T07:13:27.971Z,97093.50
2023-04-16T07:15:54.678Z,97108.38
2023-04-16T07:18:21.408Z,97111.97
2023-04-16T07:20:48.129Z,97110.31
2023-04-16T07:23:14.764Z,97107.03
2023-04-16T07:25:42.530Z,97112.41
2023-04-16T07:28:09.181Z,97118.59
2023-04-16T07:30:35.786Z,97117.25
2023-04-16T07:33:05.798Z,97116.56
2023-04-16T07:35:32.478Z,97110.13
2023-04-16T07:37:59.195Z,97117.28
2023-04-16T07:40:25.963Z,97112.44
2023-04-16T07:42:52.612Z,97120.16
2023-04-16T07:45:19.224Z,97117.63
2023-04-16T07:47:45.844Z,97123.34
2023-04-16T07:50:12.557Z,97121.00
2023-04-16T07:52:39.233Z,97125.13
2023-04-16T07:55:06.255Z,97129.00
2023-04-16T07:57:33.089Z,97123.00
2023-04-16T07:59:59.780Z,97129.56
2023-04-16T08:02:26.574Z,97132.59
2023-04-16T08:04:53.574Z,97126.81
2023-04-16T08:07:20.304Z,97132.81
2023-04-16T08:09:48.072Z,97128.19
2023-04-16T08:12:14.796Z,97140.19
2023-04-16T08:14:41.606Z,97134.72
2023-04-16T08:17:08.395Z,97137.25
2023-04-16T08:19:35.134Z,97144.31
2023-04-16T08:22:01.862Z,97148.66
2023-04-16T08:24:28.530Z,97150.81
2023-04-16T08:26:57.026Z,97153.19
2023-04-16T08:29:27.021Z,97145.28
2023-04-16T08:31:53.967Z,97144.34
2023-04-16T08:34:20.772Z,97161.34
2023-04-16T08:36:47.468Z,97151.56
2023-04-16T08:39:14.071Z,97152.72
2023-04-16T08:41:44.489Z,97164.63
2023-04-16T08:44:21.717Z,97154.25
2023-04-16T08:46:48.406Z,97154.09
2023-04-16T08:49:16.902Z,97156.03
2023-04-16T08:51:43.546Z,97155.22
2023-04-16T08:54:10.164Z,97167.72
2023-04-16T08:56:37.009Z,97169.00
2023-04-16T08:59:03.730Z,97162.56
2023-04-16T09:01:30.359Z,97169.53
2023-04-16T09:03:57.302Z,97171.31
2023-04-16T09:06:24.108Z,97176.91
2023-04-16T09:08:50.823Z,97173.16
2023-04-16T09:11:20.818Z,97173.84
2023-04-16T09:13:47.425Z,97180.84
2023-04-16T09:16:14.457Z,97183.34
2023-04-16T09:18:41.234Z,97187.00
2023-04-16T09:21:09.483Z,97180.44
2023-04-16T09:23:37.274Z,97182.22
2023-04-16T09:26:04.859Z,97185.91
2023-04-16T09:28:45.407Z,97187.47
2023-04-16T09:31:16.627Z,97185.84
2023-04-16T09:33:43.781Z,97189.63
2023-04-16T09:36:10.541Z,97186.56
2023-04-16T09:38:47.404Z,97189.69
2023-04-16T09:41:14.067Z,97189.34
2023-04-16T09:43:40.794Z,97192.38
2023-04-16T09:46:08.408Z,97193.22
2023-04-16T09:48:35.343Z,97191.06
2023-04-16T09:51:02.054Z,97193.50
2023-04-16T09:53:29.674Z,97190.66
2023-04-16T09:56:04.623Z,97188.81
2023-04-16T09:58:31.324Z,97194.56
2023-04-16T10:01:04.008Z,97190.28
2023-04-16T10:03:34.576Z,97191.44
2023-04-16T10:06:08.790Z,97194.84
2023-04-16T10:08:35.648Z,97205.63
2023-04-16T10:11:02.594Z,97206.84
2023-04-16T10:13:29.239Z,97209.59
2023-04-16T10:15:56.098Z,97205.41
2023-04-16T10:18:23.049Z,97202.63
2023-04-16T10:20:50.484Z,97202.38
2023-04-16T10:23:17.099Z,97204.72
2023-04-16T10:25:43.769Z,97197.47
2023-04-16T10:28:10.509Z,97202.38
2023-04-16T10:30:37.660Z,97207.38
2023-04-16T10:33:04.413Z,97208.56
2023-04-16T10:35:31.128Z,97199.81
2023-04-16T10:37:57.755Z,97206.91
2023-04-16T10:40:25.625Z,97207.75
2023-04-16T10:42:59.065Z,97208.84
2023-04-16T10:45:32.654Z,97214.63
2023-04-16T10:47:59.391Z,97211.13
2023-04-16T10:50:34.369Z,97213.34
2023-04-16T10:53:19.667Z,97214.44
2023-04-16T10:56:04.844Z,97209.16
2023-04-16T10:58:31.845Z,97218.97
2023-04-16T11:01:02.080Z,97210.56
2023-04-16T11:03:31.855Z,97211.50
2023-04-16T11:06:15.433Z,97204.72
2023-04-16T11:08:53.983Z,97208.03
2023-04-16T11:11:21.619Z,97207.66
2023-04-16T11:13:48.222Z,97210.06
2023-04-16T11:16:15.522Z,97208.94
2023-04-16T11:18:48.811Z,97216.19
2023-04-16T11:21:18.318Z,97215.59
2023-04-16T11:23:52.312Z,97212.44
2023-04-16T11:26:26.789Z,97206.94
2023-04-16T11:28:54.460Z,97208.94
2023-04-16T11:31:21.257Z,97205.91
2023-04-16T11:33:47.961Z,97209.00
2023-04-16T11:36:14.624Z,97212.75
2023-04-16T11:38:41.235Z,97213.19
2023-04-16T11:41:07.878Z,97209.69
2023-04-16T11:43:34.480Z,97212.78
2023-04-16T11:46:07.994Z,97205.38
2023-04-16T11:48:49.789Z,97207.41
2023-04-16T11:51:17.942Z,97208.28
2023-04-16T11:53:51.441Z,97201.16
2023-04-16T11:56:25.795Z,97204.69
2023-04-16T11:59:15.233Z,97208.91
2023-04-16T12:01:43.390Z,97204.91
2023-04-16T12:04:10.454Z,97212.81
2023-04-16T12:06:37.287Z,97204.34
2023-04-16T12:09:25.785Z,97205.63
2023-04-16T12:11:52.625Z,97204.47
2023-04-16T12:14:19.350Z,97203.88
2023-04-16T12:16:46.379Z,97206.69
2023-04-16T12:19:13.185Z,97205.88
2023-04-16T12:21:44.457Z,97207.03
2023-04-16T12:24:13.731Z,97212.56
2023-04-16T12:26:44.763Z,97206.63
2023-04-16T12:29:21.884Z,97204.88
2023-04-16T12:31:49.191Z,97210.72
2023-04-16T12:34:15.867Z,97206.34
2023-04-16T12:36:42.813Z,97211.13
2023-04-16T12:39:09.923Z,97206.06
2023-04-16T12:41:37.582Z,97204.06
2023-04-16T12:44:11.718Z,97202.44
2023-04-16T12:46:39.547Z,97199.81
2023-04-16T12:49:06.310Z,97206.28
2023-04-16T12:51:33.681Z,97202.47
2023-04-16T12:54:00.709Z,97195.19
2023-04-16T12:56:27.405Z,97202.22
2023-04-16T12:58:54.102Z,97203.88
2023-04-16T13:01:20.860Z,97201.72
2023-04-16T13:03:47.941Z,97196.81
2023-04-16T13:06:14.959Z,97191.56
2023-04-16T13:08:44.540Z,97197.06
2023-04-16T13:11:11.270Z,97200.63
2023-04-16T13:13:37.888Z,97193.38
2023-04-16T13:16:04.904Z,97192.75
2023-04-16T13:18:31.604Z,97191.34
2023-04-16T13:20:58.455Z,97190.91
2023-04-16T13:23:25.446Z,97192.19
2023-04-16T13:25:52.165Z,97190.53
2023-04-16T13:28:18.796Z,97192.44
2023-04-16T13:30:45.607Z,97194.53
2023-04-16T13:33:12.252Z,97192.56
2023-04-16T13:35:39.024Z,97193.38
2023-04-16T13:38:05.697Z,97184.38
2023-04-16T13:40:32.374Z,97188.56
2023-04-16T13:42:59.002Z,97191.19
2023-04-16T13:45:25.645Z,97185.94
2023-04-16T13:47:52.347Z,97182.28
2023-04-16T13:50:19.082Z,97185.66
2023-04-16T13:52:47.114Z,97183.56
2023-04-16T13:55:13.816Z,97184.59
2023-04-16T13:57:40.796Z,97184.84
2023-04-16T14:00:08.180Z,97174.22
2023-04-16T14:02:35.168Z,97184.22
2023-04-16T14:05:01.949Z,97188.41
2023-04-16T14:07:28.764Z,97180.19
2023-04-16T14:09:55.415Z,97178.13
2023-04-16T14:12:22.095Z,97176.34
2023-04-16T14:14:48.693Z,97177.56
2023-04-16T14:17:15.298Z,97184.34
2023-04-16T14:19:41.971Z,97176.53
2023-04-16T14:22:09.490Z,97177.06
2023-04-16T14:24:36.580Z,97181.03
2023-04-16T14:27:03.656Z,97182.84
2023-04-16T14:29:30.644Z,97178.66
2023-04-16T14:31:57.379Z,97177.38
2023-04-16T14:34:24.070Z,97173.84
2023-04-16T14:36:53.503Z,97175.03
2023-04-16T14:39:20.215Z,97179.53
2023-04-16T14:41:46.867Z,97178.25
2023-04-16T14:44:13.456Z,97179.28
2023-04-16T14:46:40.168Z,97175.56
2023-04-16T14:49:06.848Z,97176.41
2023-04-16T14:51:33.558Z,97179.16
2023-04-16T14:54:00.348Z,97172.63
2023-04-16T14:56:27.017Z,97173.16
2023-04-16T14:58:53.711Z,97167.53
2023-04-16T15:01:23.005Z,97178.13
2023-04-16T15:03:49.751Z,97174.69
2023-04-16T15:06:16.761Z,97167.63
2023-04-16T15:08:43.510Z,97170.09
2023-04-16T15:11:10.158Z,97166.38
2023-04-16T15:13:36.821Z,97167.91
2023-04-16T15:16:03.622Z,97166.84
2023-04-16T15:18:30.644Z,97164.53
2023-04-16T15:20:57.257Z,97166.06
2023-04-16T15:23:23.944Z,97165.94
2023-04-16T15:25:50.574Z,97172.97
2023-04-16T15:28:17.277Z,97171.91
2023-04-16T15:30:44.081Z,97179.78
2023-04-16T15:33:11.550Z,97173.09
2023-04-16T15:35:38.260Z,97170.84
2023-04-16T15:38:04.908Z,97175.31
2023-04-16T15:40:31.528Z,97174.38
2023-04-16T15:42:58.250Z,97170.38
2023-04-16T15:45:24.907Z,97177.03
2023-04-16T15:47:51.609Z,97173.00
2023-04-16T15:50:18.976Z,97169.38
2023-04-16T15:52:46.383Z,97176.31
2023-04-16T15:55:13.091Z,97179.72
2023-04-16T15:57:39.794Z,97172.38
2023-04-16T16:00:07.520Z,97178.63
2023-04-16T16:02:34.669Z,97183.09
2023-04-16T16:05:01.537Z,97183.19
2023-04-16T16:07:28.183Z,97188.69
2023-04-16T16:09:54.849Z,97185.22
2023-04-16T16:12:21.518Z,97183.81
2023-04-16T16:14:48.180Z,97183.91
2023-04-16T16:17:16.007Z,97185.88
2023-04-16T16:19:43.763Z,97185.69
2023-04-16T16:22:11.914Z,97198.59
2023-04-16T16:24:38.868Z,97190.69
2023-04-16T16:27:05.513Z,97195.63
2023-04-16T16:29:32.126Z,97192.47
2023-04-16T16:31:58.926Z,97185.50
2023-04-16T16:34:25.641Z,97192.88
2023-04-16T16:36:52.269Z,97193.50
2023-04-16T16:39:20.964Z,97193.94
2023-04-16T16:41:47.651Z,97195.25
2023-04-16T16:44:14.313Z,97197.06
2023-04-16T16:46:40.996Z,97196.91
2023-04-16T16:49:07.671Z,97199.00
2023-04-16T16:51:34.278Z,97208.25
2023-04-16T16:54:00.957Z,97195.22
2023-04-16T16:56:27.592Z,97199.75
2023-04-16T16:58:54.263Z,97201.75
2023-04-16T17:01:20.953Z,97208.34
2023-04-16T17:03:47.805Z,97202.13
2023-04-16T17:06:14.734Z,97197.81
2023-04-16T17:08:41.444Z,97208.56
2023-04-16T17:11:08.098Z,97210.97
2023-04-16T17:13:35.236Z,97213.00
2023-04-16T17:16:01.945Z,97211.06
2023-04-16T17:18:28.580Z,97211.97
2023-04-16T17:20:55.249Z,97215.59
2023-04-16T17:23:21.905Z,97228.44
2023-04-16T17:25:48.541Z,97226.94
2023-04-16T17:28:15.174Z,97213.84
2023-04-16T17:30:41.826Z,97221.81
2023-04-16T17:33:08.486Z,97220.97
2023-04-16T17:35:35.322Z,97221.38
2023-04-16T17:38:02.028Z,97221.13
2023-04-16T17:40:28.688Z,97222.88
2023-04-16T17:42:55.345Z,97217.09
2023-04-16T17:45:21.998Z,97222.56
2023-04-16T17:47:48.754Z,97226.59
2023-04-16T17:50:15.582Z,97219.28
2023-04-16T17:52:42.261Z,97221.72
2023-04-16T17:55:10.489Z,97222.56
2023-04-16T17:57:37.332Z,97227.56
2023-04-16T18:00:04.417Z,97225.94
2023-04-16T18:02:31.144Z,97222.50
2023-04-16T18:04:58.136Z,97236.56
2023-04-16T18:07:24.801Z,97237.63
2023-04-16T18:09:54.696Z,97224.41
2023-04-16T18:12:21.569Z,97220.50
2023-04-16T18:14:48.197Z,97221.72
2023-04-16T18:17:14.942Z,97213.13
2023-04-16T18:19:41.611Z,97225.06
2023-04-16T18:22:08.242Z,97232.25
2023-04-16T18:24:35.020Z,97215.75
2023-04-16T18:27:02.210Z,97224.72
2023-04-16T18:29:28.939Z,97223.91
2023-04-16T18:31:55.854Z,97223.94
2023-04-16T18:34:22.718Z,97227.84
2023-04-16T18:36:49.495Z,97228.25
2023-04-16T18:39:16.315Z,97230.34
2023-04-16T18:41:43.110Z,97228.75
2023-04-16T18:44:09.780Z,97233.81
2023-04-16T18:46:36.474Z,97226.66
2023-04-16T18:49:03.166Z,97235.00
2023-04-16T18:51:29.827Z,97235.44
2023-04-16T18:53:56.441Z,97237.59
2023-04-16T18:56:23.110Z,97242.97
2023-04-16T18:58:49.882Z,97243.44
2023-04-16T19:01:16.815Z,97248.41
2023-04-16T19:03:43.673Z,97246.38
2023-04-16T19:06:11.444Z,97248.03
2023-04-16T19:08:38.057Z,97245.31
2023-04-16T19:11:04.672Z,97245.41
2023-04-16T19:13:31.337Z,97258.16
2023-04-16T19:15:58.525Z,97251.53
2023-04-16T19:18:25.439Z,97257.19
2023-04-16T19:20:52.144Z,97257.84
2023-04-16T19:23:18.843Z,97254.03
2023-04-16T19:25:45.443Z,97251.63
2023-04-16T19:28:12.097Z,97251.56
2023-04-16T19:30:38.850Z,97257.06
2023-04-16T19:33:05.646Z,97256.03
2023-04-16T19:35:32.440Z,97255.16
2023-04-16T19:37:59.396Z,97256.63
2023-04-16T19:40:26.021Z,97256.53
2023-04-16T19:42:52.753Z,97255.63
2023-04-16T19:45:19.468Z,97258.38
2023-04-16T19:47:46.182Z,97260.06
2023-04-16T19:50:12.827Z,97262.88
2023-04-16T19:52:39.511Z,97256.06
2023-04-16T19:55:06.815Z,97255.47
2023-04-16T19:57:33.468Z,97255.78
2023-04-16T20:02:27.061Z,97262.38
2023-04-16T20:04:53.774Z,97259.84
2023-04-16T20:07:20.505Z,97261.91
2023-04-16T20:09:47.216Z,97258.88
2023-04-16T20:12:13.871Z,97257.88
2023-04-16T20:14:40.480Z,97250.53
2023-04-16T20:17:07.437Z,97245.97
2023-04-16T20:19:34.150Z,97242.06
2023-04-16T20:22:00.794Z,97236.66
2023-04-16T20:24:27.420Z,97239.09
2023-04-16T20:26:54.218Z,97239.66
2023-04-16T20:29:20.875Z,97240.97
2023-04-16T20:31:47.487Z,97235.03
2023-04-16T20:34:14.248Z,97235.97
2023-04-16T20:36:40.885Z,97234.28
2023-04-16T20:39:07.522Z,97229.88
2023-04-16T20:41:35.452Z,97225.94
2023-04-16T20:44:02.131Z,97234.22
2023-04-16T20:46:29.839Z,97238.69
2023-04-16T20:48:56.546Z,97229.44
2023-04-16T20:51:23.201Z,97226.31
2023-04-16T20:53:49.797Z,97224.22
2023-04-16T20:56:16.436Z,97222.84
2023-04-16T20:58:43.053Z,97219.75
2023-04-16T21:01:09.723Z,97215.00
2023-04-16T21:03:36.681Z,97213.38
2023-04-16T21:06:03.479Z,97212.22
2023-04-16T21:08:30.130Z,97203.66
2023-04-16T21:10:56.811Z,97208.16
2023-04-16T21:13:23.455Z,97210.59
2023-04-16T21:15:50.198Z,97199.06
2023-04-16T21:18:17.062Z,97195.00
2023-04-16T21:20:43.718Z,97194.53
2023-04-16T21:23:10.379Z,97193.78
2023-04-16T21:25:36.982Z,97189.66
2023-04-16T21:28:03.626Z,97187.53
2023-04-16T21:30:30.276Z,97189.03
2023-04-16T21:32:56.954Z,97194.38
2023-04-16T21:35:23.606Z,97190.13
2023-04-16T21:37:50.245Z,97193.97
2023-04-16T21:40:16.963Z,97195.44
2023-04-16T21:42:43.565Z,97192.59
2023-04-16T21:45:10.290Z,97193.56
2023-04-16T21:47:37.470Z,97182.56
2023-04-16T21:50:04.387Z,97187.34
2023-04-16T21:52:31.039Z,97188.50
2023-04-16T21:54:57.705Z,97190.41
2023-04-16T21:57:24.310Z,97190.41
2023-04-16T21:59:50.918Z,97186.84
2023-04-16T22:02:17.646Z,97184.00
2023-04-16T22:04:44.303Z,97186.28
2023-04-16T22:07:10.893Z,97179.47
2023-04-16T22:09:40.743Z,97173.81
2023-04-16T22:12:07.501Z,97170.81
2023-04-16T22:14:38.374Z,97168.31
2023-04-16T22:17:07.245Z,97169.53
2023-04-16T22:19:33.880Z,97165.84
2023-04-16T22:22:00.525Z,97162.34
2023-04-16T22:24:27.303Z,97160.00
2023-04-16T22:26:53.969Z,97149.91
2023-04-16T22:29:20.598Z,97145.19
2023-04-16T22:31:47.287Z,97150.59
2023-04-16T22:34:13.933Z,97142.25
2023-04-16T22:36:40.647Z,97133.59
2023-04-16T22:39:07.359Z,97130.09
2023-04-16T22:41:36.435Z,97132.25
2023-04-16T22:44:03.352Z,97134.69
2023-04-16T22:46:30.187Z,97133.84
2023-04-16T22:48:57.039Z,97129.16
2023-04-16T22:51:23.703Z,97119.00
2023-04-16T22:53:51.404Z,97120.88
2023-04-16T22:56:21.464Z,97123.56
2023-04-16T22:58:48.105Z,97124.00
2023-04-16T23:01:15.205Z,97121.63
2023-04-16T23:03:41.882Z,97119.38
2023-04-16T23:06:08.601Z,97122.22
2023-04-16T23:08:35.350Z,97120.13
2023-04-16T23:11:02.010Z,97114.91
2023-04-16T23:13:28.669Z,97116.22
2023-04-16T23:15:55.383Z,97115.59
2023-04-16T23:18:22.199Z,97106.16
2023-04-16T23:20:52.633Z,97112.00
2023-04-16T23:23:19.452Z,97113.28
2023-04-16T23:25:46.148Z,97105.59
2023-04-16T23:28:12.836Z,97103.38
2023-04-16T23:30:39.718Z,97107.47
2023-04-16T23:33:06.426Z,97111.97
2023-04-16T23:35:33.152Z,97113.38
2023-04-16T23:37:59.821Z,97110.63
2023-04-16T23:40:26.518Z,97104.06
2023-04-16T23:42:53.211Z,97111.84
2023-04-16T23:45:19.891Z,97107.75
2023-04-16T23:47:46.664Z,97117.22
2023-04-16T23:50:13.386Z,97100.13
2023-04-16T23:52:40.038Z,97107.97
2023-04-16T23:55:06.886Z,97100.53
2023-04-16T23:57:33.535Z,97092.19
